createdAt,value
2024-03-23T00:01:55.303Z,67.77
2024-03-23T00:04:22.844Z,68.94
2024-03-23T00:06:50.404Z,67.42
2024-03-23T00:09:18.028Z,66.08
2024-03-23T00:11:45.921Z,66.23
2024-03-23T00:14:13.482Z,66.53
2024-03-23T00:16:40.942Z,67.09
2024-03-23T00:19:08.500Z,69.13
2024-03-23T00:21:41.490Z,70.04
2024-03-23T00:31:49.759Z,67.80
2024-03-23T00:34:17.306Z,68.86
2024-03-23T00:36:44.900Z,69.48
2024-03-23T00:47:10.632Z,67.98
2024-03-23T00:49:37.863Z,68.62
2024-03-23T00:52:04.624Z,68.92
2024-03-23T00:54:31.570Z,69.97
2024-03-23T00:56:58.543Z,69.57
2024-03-23T00:59:29.042Z,68.16
2024-03-23T01:01:56.442Z,67.89
2024-03-23T01:04:23.344Z,68.74
2024-03-23T01:06:50.190Z,69.38
2024-03-23T01:09:17.143Z,71.10
2024-03-23T01:11:43.973Z,70.58
2024-03-23T01:14:10.845Z,69.22
2024-03-23T01:16:37.758Z,68.91
2024-03-23T01:19:04.603Z,68.59
2024-03-23T01:21:31.448Z,69.17
2024-03-23T01:23:58.286Z,70.08
2024-03-23T01:26:43.767Z,70.82
2024-03-23T01:29:10.748Z,69.05
2024-03-23T01:31:37.663Z,68.31
2024-03-23T01:34:04.500Z,68.76
2024-03-23T01:36:31.557Z,69.56
2024-03-23T01:38:58.388Z,69.90
2024-03-23T01:41:25.568Z,68.27
2024-03-23T01:43:52.277Z,65.44
2024-03-23T01:46:19.266Z,64.34
2024-03-23T01:48:46.375Z,64.43
2024-03-23T01:51:13.843Z,65.32
2024-03-23T01:53:40.674Z,66.66
2024-03-23T01:56:08.134Z,69.60
2024-03-23T01:58:35.626Z,68.98
2024-03-23T02:01:02.738Z,68.25
2024-03-23T02:03:29.892Z,68.07
2024-03-23T02:05:56.847Z,69.65
2024-03-23T02:08:24.287Z,70.55
2024-03-23T02:10:51.266Z,70.23
2024-03-23T02:13:18.906Z,67.99
2024-03-23T02:15:46.049Z,67.73
2024-03-23T02:18:12.996Z,67.86
2024-03-23T02:20:40.038Z,68.57
2024-03-23T02:23:07.084Z,69.64
2024-03-23T02:25:34.249Z,69.40
2024-03-23T02:28:01.177Z,68.24
2024-03-23T02:30:28.166Z,67.63
2024-03-23T02:32:55.069Z,68.21
2024-03-23T02:35:22.031Z,68.60
2024-03-23T02:37:52.137Z,70.97
2024-03-23T02:40:18.976Z,69.56
2024-03-23T02:42:45.818Z,68.24
2024-03-23T02:45:12.758Z,67.91
2024-03-23T02:47:40.122Z,68.27
2024-03-23T02:50:07.784Z,68.82
2024-03-23T02:52:35.073Z,70.16
2024-03-23T02:55:02.806Z,68.58
2024-03-23T02:57:30.363Z,66.79
2024-03-23T02:59:57.320Z,67.29
2024-03-23T03:02:24.246Z,68.56
2024-03-23T03:04:51.192Z,69.66
2024-03-23T03:07:18.144Z,70.76
2024-03-23T03:09:45.079Z,69.73
2024-03-23T03:12:12.645Z,68.72
2024-03-23T03:14:39.755Z,69.35
2024-03-23T03:17:11.446Z,69.87
2024-03-23T03:19:38.593Z,70.63
2024-03-23T03:22:05.639Z,71.10
2024-03-23T03:24:32.591Z,69.76
2024-03-23T03:26:59.427Z,68.92
2024-03-23T03:29:26.518Z,68.99
2024-03-23T03:31:53.530Z,68.63
2024-03-23T03:34:20.569Z,69.50
2024-03-23T03:36:47.526Z,70.00
2024-03-23T03:39:14.255Z,69.40
2024-03-23T03:41:41.207Z,68.09
2024-03-23T03:44:08.043Z,67.89
2024-03-23T03:46:34.886Z,67.63
2024-03-23T03:49:01.730Z,67.67
2024-03-23T03:51:28.685Z,67.91
2024-03-23T03:53:55.533Z,68.05
2024-03-23T03:56:23.292Z,68.51
2024-03-23T03:58:50.259Z,66.63
2024-03-23T04:01:17.065Z,67.13
2024-03-23T04:03:44.589Z,67.49
2024-03-23T04:06:11.480Z,67.57
2024-03-23T04:08:38.620Z,68.22
2024-03-23T04:11:05.486Z,69.06
2024-03-23T04:13:32.408Z,67.48
2024-03-23T04:15:59.601Z,66.38
2024-03-23T04:18:26.503Z,66.07
2024-03-23T04:20:53.244Z,67.20
2024-03-23T04:23:20.189Z,67.45
2024-03-23T04:25:47.135Z,67.89
2024-03-23T04:28:14.111Z,68.17
2024-03-23T04:30:41.223Z,66.49
2024-03-23T04:34:34.104Z,66.10
2024-03-23T04:43:14.836Z,67.20
2024-03-23T04:45:42.667Z,66.53
2024-03-23T04:48:10.116Z,64.87
2024-03-23T04:50:37.692Z,62.59
2024-03-23T04:53:05.539Z,62.75
2024-03-23T04:55:33.142Z,62.75
2024-03-23T04:58:00.576Z,63.60
2024-03-23T05:00:28.442Z,64.29
2024-03-23T05:02:56.085Z,64.04
2024-03-23T05:05:23.645Z,63.87
2024-03-23T05:14:17.806Z,64.66
2024-03-23T05:16:45.833Z,64.60
2024-03-23T05:19:13.303Z,66.44
2024-03-23T05:21:40.878Z,64.39
2024-03-23T05:24:08.826Z,62.80
2024-03-23T05:26:37.347Z,62.49
2024-03-23T05:29:04.799Z,62.91
2024-03-23T05:31:32.526Z,63.56
2024-03-23T05:34:00.129Z,64.11
2024-03-23T05:36:27.656Z,64.61
2024-03-23T05:38:55.199Z,62.48
2024-03-23T05:41:25.027Z,61.96
2024-03-23T05:43:52.572Z,62.56
2024-03-23T05:46:20.137Z,62.15
2024-03-23T05:48:47.801Z,63.03
2024-03-23T05:51:15.631Z,62.19
2024-03-23T06:13:48.687Z,60.11
2024-03-23T06:16:16.273Z,60.99
2024-03-23T06:18:44.312Z,59.93
2024-03-23T06:21:15.909Z,59.12
2024-03-23T06:23:43.853Z,58.11
2024-03-23T06:26:11.512Z,58.35
2024-03-23T06:36:23.551Z,58.63
2024-03-23T06:46:29.140Z,57.32
2024-03-23T06:48:56.958Z,56.83
2024-03-23T06:51:24.677Z,57.00
2024-03-23T06:53:52.231Z,56.72
2024-03-23T06:56:19.808Z,57.09
2024-03-23T06:58:47.482Z,56.13
2024-03-23T07:01:15.360Z,55.67
2024-03-23T07:11:24.434Z,55.90
2024-03-23T07:13:52.675Z,55.54
2024-03-23T07:16:20.131Z,55.84
2024-03-23T07:18:47.806Z,55.45
2024-03-23T07:21:16.072Z,55.47
2024-03-23T07:23:46.101Z,55.74
2024-03-23T07:26:13.748Z,55.40
2024-03-23T07:28:45.095Z,55.21
2024-03-23T07:31:13.478Z,54.54
2024-03-23T07:33:48.353Z,54.34
2024-03-23T07:36:16.067Z,54.72
2024-03-23T07:38:52.383Z,54.85
2024-03-23T07:41:23.525Z,54.25
2024-03-23T07:43:51.856Z,54.12
2024-03-23T07:46:20.547Z,53.67
2024-03-23T07:48:48.532Z,53.32
2024-03-23T07:51:21.316Z,53.17
2024-03-23T08:01:28.735Z,52.27
2024-03-23T08:03:56.452Z,52.34
2024-03-23T08:06:24.902Z,51.69
2024-03-23T08:09:00.815Z,51.35
2024-03-23T08:11:29.228Z,50.99
2024-03-23T08:13:56.884Z,50.72
2024-03-23T08:16:24.735Z,50.05
2024-03-23T08:18:53.066Z,50.35
2024-03-23T08:21:20.892Z,50.19
2024-03-23T08:23:48.550Z,50.11
2024-03-23T08:26:17.243Z,49.19
2024-03-23T08:28:44.677Z,50.46
2024-03-23T08:31:13.217Z,49.86
2024-03-23T08:33:40.933Z,50.02
2024-03-23T08:36:09.623Z,49.87
2024-03-23T08:38:37.214Z,49.39
2024-03-23T08:41:11.507Z,49.03
2024-03-23T08:43:40.715Z,48.53
2024-03-23T08:46:12.649Z,47.68
2024-03-23T08:48:41.854Z,47.89
2024-03-23T08:59:06.849Z,47.02
2024-03-23T09:01:33.543Z,45.98
2024-03-23T09:04:00.697Z,45.79
2024-03-23T09:06:27.950Z,45.14
2024-03-23T09:08:54.794Z,44.96
2024-03-23T09:11:21.969Z,44.64
2024-03-23T09:13:50.230Z,44.94
2024-03-23T09:16:17.415Z,45.14
2024-03-23T09:18:45.990Z,45.91
2024-03-23T09:21:16.224Z,46.18
2024-03-23T09:23:46.695Z,45.67
2024-03-23T09:26:13.961Z,44.56
2024-03-23T09:28:41.713Z,44.74
2024-03-23T09:31:10.439Z,45.39
2024-03-23T09:33:37.451Z,44.94
2024-03-23T09:36:05.264Z,44.72
2024-03-23T09:38:32.467Z,44.62
2024-03-23T09:41:00.033Z,44.63
2024-03-23T09:43:27.202Z,45.19
2024-03-23T09:45:54.421Z,45.32
2024-03-23T09:48:21.515Z,44.90
2024-03-23T09:50:49.552Z,45.18
2024-03-23T09:53:16.695Z,45.59
2024-03-23T09:55:45.183Z,45.29
2024-03-23T09:58:17.237Z,45.06
2024-03-23T10:00:44.892Z,44.83
2024-03-23T10:03:12.264Z,44.43
2024-03-23T10:05:41.787Z,44.43
2024-03-23T10:08:15.067Z,44.07
2024-03-23T10:10:42.637Z,44.21
2024-03-23T10:13:09.766Z,44.20
2024-03-23T10:15:37.365Z,44.62
2024-03-23T10:18:16.871Z,44.15
2024-03-23T10:20:44.937Z,45.16
2024-03-23T10:23:17.100Z,45.00
2024-03-23T10:25:44.356Z,44.37
2024-03-23T10:28:12.432Z,44.40
2024-03-23T10:30:40.000Z,44.12
2024-03-23T10:33:11.258Z,44.33
2024-03-23T10:35:38.796Z,44.56
2024-03-23T10:38:09.986Z,44.21
2024-03-23T10:40:37.304Z,44.35
2024-03-23T10:43:05.571Z,44.58
2024-03-23T10:45:32.850Z,44.72
2024-03-23T10:47:59.868Z,44.58
2024-03-23T10:50:27.167Z,44.91
2024-03-23T10:52:55.916Z,44.75
2024-03-23T10:55:23.670Z,44.48
2024-03-23T10:57:52.606Z,44.27
2024-03-23T11:00:21.965Z,44.52
2024-03-23T11:02:49.595Z,44.39
2024-03-23T11:05:30.402Z,44.88
2024-03-23T11:07:57.563Z,44.28
2024-03-23T11:10:29.831Z,44.71
2024-03-23T11:13:23.305Z,44.26
2024-03-23T11:15:50.332Z,44.06
2024-03-23T11:18:23.732Z,43.94
2024-03-23T11:20:50.800Z,44.16
2024-03-23T11:23:28.497Z,44.37
2024-03-23T11:25:55.527Z,44.22
2024-03-23T11:28:22.773Z,44.09
2024-03-23T11:30:49.921Z,44.42
2024-03-23T11:33:16.973Z,44.39
2024-03-23T11:35:44.647Z,44.82
2024-03-23T11:38:12.315Z,44.52
2024-03-23T11:40:40.802Z,44.66
2024-03-23T11:43:09.356Z,44.48
2024-03-23T11:45:37.852Z,45.07
2024-03-23T11:48:15.854Z,45.20
2024-03-23T11:50:44.440Z,44.80
2024-03-23T11:53:18.948Z,44.17
2024-03-23T11:55:50.974Z,44.53
2024-03-23T11:58:22.816Z,44.30
2024-03-23T12:01:00.187Z,44.83
2024-03-23T12:03:29.162Z,44.69
2024-03-23T12:05:58.241Z,43.93
2024-03-23T12:08:29.632Z,43.46
2024-03-23T12:11:14.265Z,43.41
2024-03-23T12:13:43.827Z,43.73
2024-03-23T12:16:11.955Z,44.03
2024-03-23T12:18:42.991Z,43.91
2024-03-23T12:21:10.342Z,43.94
2024-03-23T12:23:40.044Z,44.12
2024-03-23T12:26:07.236Z,43.90
2024-03-23T12:28:35.471Z,43.17
2024-03-23T12:31:02.631Z,43.60
2024-03-23T12:33:30.193Z,43.52
2024-03-23T12:35:57.537Z,43.72
2024-03-23T12:38:24.993Z,44.08
2024-03-23T12:40:52.453Z,44.32
2024-03-23T12:43:19.757Z,43.96
2024-03-23T12:45:50.669Z,44.68
2024-03-23T12:48:17.792Z,44.41
2024-03-23T12:50:44.772Z,44.65
2024-03-23T12:53:12.091Z,44.84
2024-03-23T12:55:39.343Z,44.93
2024-03-23T12:58:06.607Z,45.00
2024-03-23T13:00:33.651Z,45.12
2024-03-23T13:03:00.835Z,44.08
2024-03-23T13:05:27.941Z,44.19
2024-03-23T13:07:55.304Z,44.01
2024-03-23T13:10:22.660Z,43.90
2024-03-23T13:12:49.595Z,43.96
2024-03-23T13:15:18.530Z,44.85
2024-03-23T13:17:45.533Z,44.87
2024-03-23T13:20:15.350Z,45.40
2024-03-23T13:22:43.234Z,45.47
2024-03-23T13:25:10.466Z,45.06
2024-03-23T13:27:37.551Z,45.16
2024-03-23T13:30:05.683Z,45.36
2024-03-23T13:32:33.040Z,44.70
2024-03-23T13:35:00.158Z,44.49
2024-03-23T13:37:27.546Z,44.85
2024-03-23T13:39:54.627Z,44.99
2024-03-23T13:42:21.769Z,45.19
2024-03-23T13:44:50.242Z,45.46
2024-03-23T13:47:17.387Z,45.87
2024-03-23T13:49:44.627Z,45.46
2024-03-23T13:52:11.915Z,46.14
2024-03-23T13:54:39.344Z,45.66
2024-03-23T13:57:06.186Z,45.72
2024-03-23T13:59:33.130Z,45.23
2024-03-23T14:02:00.681Z,44.78
2024-03-23T14:04:28.287Z,44.94
2024-03-23T14:06:55.701Z,45.10
2024-03-23T14:09:24.643Z,45.04
2024-03-23T14:11:52.264Z,45.50
2024-03-23T14:14:19.511Z,45.48
2024-03-23T14:16:46.895Z,45.93
2024-03-23T14:19:13.905Z,45.98
2024-03-23T14:21:40.957Z,46.01
2024-03-23T14:24:10.023Z,46.19
2024-03-23T14:26:37.509Z,45.24
2024-03-23T14:29:04.684Z,45.43
2024-03-23T14:31:31.705Z,45.71
2024-03-23T14:33:58.863Z,45.31
2024-03-23T14:36:27.244Z,45.61
2024-03-23T14:38:54.487Z,45.53
2024-03-23T14:41:21.960Z,45.38
2024-03-23T14:43:51.658Z,45.65
2024-03-23T14:46:19.931Z,46.46
2024-03-23T14:48:47.306Z,46.52
2024-03-23T14:51:14.231Z,46.61
2024-03-23T14:53:42.427Z,47.03
2024-03-23T14:56:12.631Z,47.40
2024-03-23T14:58:39.775Z,47.78
2024-03-23T15:01:11.166Z,47.70
2024-03-23T15:03:40.114Z,47.88
2024-03-23T15:06:07.369Z,48.08
2024-03-23T15:08:34.723Z,48.61
2024-03-23T15:11:06.074Z,49.11
2024-03-23T15:13:36.711Z,50.07
2024-03-23T15:16:04.963Z,50.32
2024-03-23T15:32:07.035Z,51.28
2024-03-23T15:34:34.186Z,50.52
2024-03-23T15:37:01.269Z,50.94
2024-03-23T15:39:32.213Z,50.53
2024-03-23T15:42:00.664Z,50.78
2024-03-23T15:44:27.920Z,51.05
2024-03-23T15:46:55.158Z,50.72
2024-03-23T15:49:22.250Z,50.52
2024-03-23T15:51:49.377Z,50.92
2024-03-23T15:54:16.410Z,50.94
2024-03-23T15:56:43.465Z,51.08
2024-03-23T15:59:10.597Z,51.57
2024-03-23T16:01:39.223Z,52.07
2024-03-23T16:04:06.541Z,52.50
2024-03-23T16:06:33.891Z,52.66
2024-03-23T16:09:01.651Z,52.77
2024-03-23T16:11:28.705Z,53.06
2024-03-23T16:13:55.952Z,53.25
2024-03-23T16:16:24.541Z,53.33
2024-03-23T16:18:51.607Z,52.94
2024-03-23T16:21:19.145Z,53.14
2024-03-23T16:23:47.322Z,53.31
2024-03-23T16:26:17.298Z,53.44
2024-03-23T16:28:44.390Z,53.71
2024-03-23T16:31:11.434Z,53.84
2024-03-23T16:33:38.896Z,54.25
2024-03-23T16:36:14.363Z,54.94
2024-03-23T16:38:46.589Z,55.23
2024-03-23T16:41:15.581Z,55.81
2024-03-23T16:43:42.755Z,56.14
2024-03-23T16:46:15.032Z,55.58
2024-03-23T16:48:46.258Z,54.26
2024-03-23T16:51:13.628Z,53.50
2024-03-23T16:53:41.281Z,53.41
2024-03-23T16:56:09.752Z,53.68
2024-03-23T16:58:42.764Z,54.14
2024-03-23T17:01:18.765Z,54.79
2024-03-23T17:03:50.354Z,55.65
2024-03-23T17:06:19.369Z,56.08
2024-03-23T17:08:48.244Z,56.33
2024-03-23T17:11:15.183Z,56.74
2024-03-23T17:13:42.871Z,57.17
2024-03-23T17:16:11.643Z,55.90
2024-03-23T17:18:39.248Z,54.94
2024-03-23T17:21:06.347Z,55.04
2024-03-23T17:23:34.729Z,55.45
2024-03-23T17:26:02.304Z,57.10
2024-03-23T17:28:29.739Z,57.65
2024-03-23T17:30:57.354Z,58.36
2024-03-23T17:33:25.291Z,59.23
2024-03-23T17:35:52.317Z,60.00
2024-03-23T17:38:20.224Z,58.82
2024-03-23T17:40:48.459Z,57.60
2024-03-23T17:43:16.116Z,57.53
2024-03-23T17:45:43.165Z,57.74
2024-03-23T17:48:10.517Z,57.48
2024-03-23T17:50:37.802Z,58.07
2024-03-23T17:53:05.125Z,57.13
2024-03-23T17:55:32.177Z,56.33
2024-03-23T17:58:01.693Z,56.02
2024-03-23T18:00:28.929Z,55.98
2024-03-23T18:02:56.015Z,55.95
2024-03-23T18:05:23.238Z,55.91
2024-03-23T18:07:50.611Z,54.83
2024-03-23T18:10:18.053Z,53.98
2024-03-23T18:12:46.830Z,54.04
2024-03-23T18:15:19.568Z,54.41
2024-03-23T18:17:52.917Z,54.44
2024-03-23T18:20:21.900Z,55.17
2024-03-23T18:22:48.949Z,55.68
2024-03-23T18:25:16.131Z,56.04
2024-03-23T18:27:43.563Z,56.21
2024-03-23T18:30:11.471Z,55.85
2024-03-23T18:32:39.191Z,56.13
2024-03-23T18:35:08.616Z,56.04
2024-03-23T18:37:35.867Z,56.07
2024-03-23T18:40:03.534Z,56.27
2024-03-23T18:42:33.401Z,56.13
2024-03-23T18:45:00.993Z,56.14
2024-03-23T18:47:28.448Z,56.18
2024-03-23T18:49:55.612Z,56.20
2024-03-23T18:52:22.943Z,56.33
2024-03-23T18:54:50.192Z,56.57
2024-03-23T18:57:17.241Z,55.52
2024-03-23T18:59:44.594Z,54.47
2024-03-23T19:02:11.948Z,53.54
2024-03-23T19:04:39.302Z,54.04
2024-03-23T19:07:06.397Z,54.22
2024-03-23T19:09:35.891Z,54.37
2024-03-23T19:12:05.782Z,54.39
2024-03-23T19:14:32.954Z,54.46
2024-03-23T19:17:00.279Z,55.15
2024-03-23T19:19:27.735Z,55.33
2024-03-23T19:21:54.877Z,55.29
2024-03-23T19:24:22.029Z,55.35
2024-03-23T19:26:49.296Z,55.48
2024-03-23T19:29:16.842Z,55.76
2024-03-23T19:31:43.885Z,55.87
2024-03-23T19:34:11.151Z,56.06
2024-03-23T19:36:38.187Z,55.94
2024-03-23T19:39:05.679Z,56.44
2024-03-23T19:41:32.999Z,56.27
2024-03-23T19:44:00.462Z,56.37
2024-03-23T19:46:28.325Z,56.42
2024-03-23T19:48:55.631Z,55.99
2024-03-23T19:51:22.853Z,54.53
2024-03-23T19:53:51.721Z,54.00
2024-03-23T19:56:19.440Z,54.33
2024-03-23T19:58:47.047Z,55.42
2024-03-23T20:01:15.936Z,55.53
2024-03-23T20:03:46.875Z,55.36
2024-03-23T20:06:14.128Z,55.77
2024-03-23T20:08:41.376Z,55.76
2024-03-23T20:11:09.274Z,56.15
2024-03-23T20:13:39.354Z,56.31
2024-03-23T20:16:08.663Z,56.54
2024-03-23T20:18:35.933Z,56.32
2024-03-23T20:21:04.665Z,56.72
2024-03-23T20:23:32.062Z,57.12
2024-03-23T20:25:59.416Z,56.29
2024-03-23T20:28:27.686Z,55.53
2024-03-23T20:31:01.797Z,55.25
2024-03-23T20:33:29.269Z,55.34
2024-03-23T20:35:57.022Z,55.62
2024-03-23T20:38:24.303Z,55.84
2024-03-23T20:40:57.334Z,56.17
2024-03-23T20:43:24.840Z,56.46
2024-03-23T20:45:59.263Z,56.73
2024-03-23T20:48:26.910Z,57.24
2024-03-23T20:51:01.354Z,57.29
2024-03-23T20:53:28.786Z,57.44
2024-03-23T20:55:58.921Z,55.94
2024-03-23T20:58:27.491Z,54.86
2024-03-23T21:00:54.575Z,54.79
2024-03-23T21:03:21.682Z,55.08
2024-03-23T21:05:52.425Z,55.30
2024-03-23T21:08:20.489Z,55.65
2024-03-23T21:10:54.513Z,56.13
2024-03-23T21:13:22.459Z,56.78
2024-03-23T21:15:53.913Z,57.24
2024-03-23T21:18:20.861Z,57.42
2024-03-23T21:20:58.564Z,57.49
2024-03-23T21:23:26.526Z,57.73
2024-03-23T21:25:57.698Z,57.09
2024-03-23T21:28:24.616Z,55.66
2024-03-23T21:30:51.604Z,55.26
2024-03-23T21:33:19.128Z,55.81
2024-03-23T21:35:45.960Z,55.73
2024-03-23T21:38:13.238Z,55.72
2024-03-23T21:40:40.365Z,56.11
2024-03-23T21:43:07.659Z,56.44
2024-03-23T21:45:34.974Z,56.71
2024-03-23T21:48:03.154Z,56.88
2024-03-23T21:50:32.755Z,57.45
2024-03-23T21:53:00.013Z,57.25
2024-03-23T21:55:26.895Z,57.57
2024-03-23T21:57:54.105Z,56.40
2024-03-23T22:00:21.149Z,55.64
2024-03-23T22:02:48.004Z,55.32
2024-03-23T22:05:15.243Z,55.57
2024-03-23T22:07:43.828Z,55.66
2024-03-23T22:10:11.177Z,56.29
2024-03-23T22:12:38.124Z,56.42
2024-03-23T22:15:05.713Z,56.73
2024-03-23T22:17:32.936Z,57.05
2024-03-23T22:19:59.813Z,56.96
2024-03-23T22:22:27.645Z,56.93
2024-03-23T22:24:54.591Z,57.56
2024-03-23T22:27:21.554Z,57.34
2024-03-23T22:29:48.693Z,56.01
2024-03-23T22:32:15.629Z,55.04
2024-03-23T22:34:42.571Z,54.29
2024-03-23T22:37:09.635Z,54.99
2024-03-23T23:05:27.480Z,56.36
2024-03-23T23:07:55.095Z,56.36
2024-03-23T23:10:22.141Z,56.67
2024-03-23T23:12:49.498Z,57.06
2024-03-23T23:15:16.438Z,57.08
2024-03-23T23:17:43.226Z,56.88
2024-03-23T23:20:11.060Z,57.18
2024-03-23T23:22:38.098Z,57.31
2024-03-23T23:25:06.426Z,57.14
2024-03-23T23:27:33.517Z,57.44
2024-03-23T23:30:00.715Z,56.37
2024-03-23T23:32:27.920Z,54.50
2024-03-23T23:34:55.172Z,53.88
2024-03-23T23:37:22.647Z,54.47
2024-03-23T23:39:49.876Z,54.89
2024-03-23T23:42:16.869Z,55.55
2024-03-23T23:44:43.869Z,55.79
2024-03-23T23:47:10.643Z,56.22
2024-03-23T23:49:37.670Z,56.42
2024-03-23T23:52:05.221Z,56.62
2024-03-23T23:54:32.164Z,56.86
2024-03-23T23:56:59.187Z,57.24
2024-03-23T23:59:26.771Z,57.28
